Time;durP1;ratioP1;P1;durP2;ratioP2;P2;SDS_P1;SDS_P2;PMS_P1;PMS_P2;Temp;Humidity;BMP_temperature;BMP_pressure;BME280_temperature;BME280_humidity;BME280_pressure;Samples;Min_cycle;Max_cycle;Signal;HPM_P1;HPM_P2
2022/05/21 00:00:31;;;;;;;16.65;9.00;;;;;;;11.53;100.00;101831.28;4991349;28;20050;-59
2022/05/21 00:02:59;;;;;;;18.83;10.07;;;;;;;11.48;100.00;101834.19;4991847;28;20046;-59
2022/05/21 00:05:29;;;;;;;14.38;9.50;;;;;;;11.49;100.00;101827.97;4992155;28;20410;-57
2022/05/21 00:07:58;;;;;;;16.70;9.55;;;;;;;11.51;100.00;101839.28;4991938;28;20501;-58
2022/05/21 00:10:28;;;;;;;15.68;9.52;;;;;;;11.47;100.00;101840.38;4991384;28;20074;-58
2022/05/21 00:12:56;;;;;;;14.75;9.57;;;;;;;11.44;100.00;101838.75;4994298;28;20433;-58
2022/05/21 00:15:28;;;;;;;15.10;9.40;;;;;;;11.44;100.00;101837.91;4995405;28;20084;-59
2022/05/21 00:17:57;;;;;;;14.40;9.63;;;;;;;11.44;100.00;101827.38;4995380;28;20042;-59
2022/05/21 00:23:14;;;;;;;16.08;9.63;;;;;;;11.43;100.00;101820.41;4995410;28;20046;-59
2022/05/21 00:25:43;;;;;;;17.55;10.77;;;;;;;11.45;100.00;101821.16;4995131;28;20060;-59
2022/05/21 00:28:12;;;;;;;15.07;10.18;;;;;;;11.47;100.00;101821.94;4995119;28;20046;-59
2022/05/21 00:30:41;;;;;;;16.35;10.80;;;;;;;11.44;100.00;101820.31;4993452;28;20081;-60
2022/05/21 00:33:09;;;;;;;17.60;10.90;;;;;;;11.44;100.00;101817.69;4994897;28;20124;-59
2022/05/21 00:35:38;;;;;;;18.08;11.48;;;;;;;11.45;100.00;101821.16;4991936;28;20100;-59
2022/05/21 00:38:07;;;;;;;18.27;10.98;;;;;;;11.51;100.00;101812.94;4992454;28;20038;-59
2022/05/21 00:40:35;;;;;;;16.05;11.25;;;;;;;11.50;100.00;101819.97;4994647;28;20089;-58
2022/05/21 00:43:04;;;;;;;18.00;12.48;;;;;;;11.49;100.00;101818.28;4994862;28;20030;-59
2022/05/21 00:45:32;;;;;;;16.60;12.73;;;;;;;11.48;100.00;101819.22;4994579;28;20493;-59
2022/05/21 00:48:01;;;;;;;20.02;12.13;;;;;;;11.59;100.00;101815.13;4994863;28;20046;-59
2022/05/21 00:50:30;;;;;;;18.88;12.60;;;;;;;11.62;100.00;101821.09;4994676;28;20490;-59
2022/05/21 00:52:59;;;;;;;21.15;13.73;;;;;;;11.64;100.00;101826.28;4995136;28;20219;-59
2022/05/21 00:55:32;;;;;;;18.23;13.05;;;;;;;11.63;100.00;101821.94;4994878;28;20054;-59
2022/05/21 01:00:51;;;;;;;18.67;12.48;;;;;;;11.63;100.00;101828.06;4995045;28;20101;-59
2022/05/21 01:03:21;;;;;;;19.13;12.90;;;;;;;11.65;100.00;101835.91;4994965;28;20061;-59
2022/05/21 01:05:49;;;;;;;19.58;12.68;;;;;;;11.64;100.00;101835.06;4993871;28;20096;-59
2022/05/21 01:08:18;;;;;;;18.05;12.10;;;;;;;11.63;100.00;101825.44;4991656;28;20425;-58
2022/05/21 01:10:49;;;;;;;18.90;12.32;;;;;;;11.65;100.00;101828.00;4990117;28;20050;-58
2022/05/21 01:13:21;;;;;;;18.67;12.55;;;;;;;11.65;100.00;101826.19;4994477;28;20069;-59
2022/05/21 01:15:53;;;;;;;16.42;12.25;;;;;;;11.66;100.00;101832.34;4994439;28;20054;-60
2022/05/21 01:18:23;;;;;;;17.87;12.67;;;;;;;11.64;100.00;101828.91;4994759;28;20050;-59
2022/05/21 01:20:55;;;;;;;19.13;12.10;;;;;;;11.72;100.00;101824.09;4994035;28;20046;-59
2022/05/21 01:23:25;;;;;;;18.90;11.77;;;;;;;11.79;100.00;101829.88;4993485;28;20417;-58
2022/05/21 01:25:56;;;;;;;17.55;11.80;;;;;;;11.74;100.00;101826.63;4994139;28;20409;-58
2022/05/21 01:28:26;;;;;;;18.67;12.55;;;;;;;11.76;100.00;101817.72;4991891;28;20054;-58
2022/05/21 01:30:57;;;;;;;17.77;12.32;;;;;;;11.75;100.00;101817.78;4989373;28;20058;-59
2022/05/21 01:33:27;;;;;;;18.17;12.23;;;;;;;11.71;100.00;101808.34;4993585;28;20050;-58
2022/05/21 01:35:57;;;;;;;18.27;12.68;;;;;;;11.79;100.00;101814.94;4993785;28;20043;-59
2022/05/21 01:38:31;;;;;;;20.33;12.55;;;;;;;11.80;100.00;101819.25;4992420;28;20034;-60
2022/05/21 01:41:00;;;;;;;20.45;12.48;;;;;;;11.85;100.00;101811.09;4989379;28;20054;-58
2022/05/21 01:46:15;;;;;;;17.95;12.00;;;;;;;11.80;100.00;101813.13;4993547;28;20058;-59
2022/05/21 01:48:44;;;;;;;17.80;12.10;;;;;;;11.79;100.00;101812.28;4993785;28;20069;-59
2022/05/21 01:51:13;;;;;;;18.05;11.70;;;;;;;11.83;100.00;101805.03;4993599;28;20061;-59
2022/05/21 01:53:43;;;;;;;20.45;11.40;;;;;;;11.85;100.00;101803.19;4992306;28;20324;-58
2022/05/21 01:56:12;;;;;;;18.45;11.60;;;;;;;11.88;100.00;101810.91;4993575;28;20508;-59
2022/05/21 01:58:41;;;;;;;17.77;11.23;;;;;;;11.81;100.00;101804.28;4993729;28;20061;-60
2022/05/21 02:01:10;;;;;;;18.52;11.57;;;;;;;11.87;100.00;101805.75;4992068;28;20062;-59
2022/05/21 02:03:40;;;;;;;17.10;10.32;;;;;;;11.97;100.00;101802.53;4990964;28;20054;-59
2022/05/21 02:06:08;;;;;;;16.20;10.70;;;;;;;11.97;100.00;101802.53;4987728;28;20054;-58
2022/05/21 02:08:36;;;;;;;18.83;11.35;;;;;;;11.99;100.00;101805.09;4991250;28;20494;-59
2022/05/21 02:11:06;;;;;;;19.42;11.55;;;;;;;12.00;100.00;101801.53;4989553;28;20038;-59
2022/05/21 02:13:36;;;;;;;19.17;12.23;;;;;;;11.99;100.00;101800.66;4990977;28;20096;-59
2022/05/21 02:16:04;;;;;;;19.85;11.65;;;;;;;11.98;100.00;101809.53;4993085;28;20125;-58
2022/05/21 02:18:32;;;;;;;22.20;12.35;;;;;;;12.00;100.00;101809.44;4993075;28;20125;-59
2022/05/21 02:21:01;;;;;;;18.58;11.63;;;;;;;12.03;100.00;101813.69;4993062;28;20042;-59
2022/05/21 02:23:28;;;;;;;19.17;12.77;;;;;;;12.06;100.00;101803.81;4990318;28;20042;-59
2022/05/21 02:25:59;;;;;;;18.98;11.50;;;;;;;12.04;100.00;101804.81;4988650;28;20050;-59
2022/05/21 02:28:30;;;;;;;19.92;12.00;;;;;;;12.09;100.00;101808.06;4992736;28;20050;-59
2022/05/21 02:30:58;;;;;;;22.15;12.32;;;;;;;12.09;100.00;101808.06;4992493;28;20141;-59
2022/05/21 02:33:27;;;;;;;18.88;12.35;;;;;;;12.08;100.00;101801.06;4992499;28;20070;-59
2022/05/21 02:35:55;;;;;;;21.30;12.13;;;;;;;12.09;100.00;101803.66;4991918;28;20058;-59
2022/05/21 02:41:13;;;;;;;20.63;12.18;;;;;;;12.13;100.00;101799.03;4992667;28;20047;-58
2022/05/21 02:43:43;;;;;;;18.08;12.43;;;;;;;12.10;100.00;101804.50;4991317;28;20043;-59
2022/05/21 02:46:12;;;;;;;22.85;13.15;;;;;;;12.08;100.00;101806.34;4988020;28;20050;-59
2022/05/21 02:48:42;;;;;;;18.15;11.77;;;;;;;12.15;100.00;101810.34;4992102;28;20078;-58
2022/05/21 02:51:11;;;;;;;27.55;13.32;;;;;;;12.14;100.00;101811.28;4991197;28;20074;-59
2022/05/21 02:53:40;;;;;;;23.55;12.27;;;;;;;12.15;100.00;101813.00;4991128;28;20046;-59
2022/05/21 02:56:13;;;;;;;20.73;11.85;;;;;;;12.13;100.00;101805.19;4992523;28;20390;-59
2022/05/21 02:58:43;;;;;;;19.58;11.50;;;;;;;12.13;100.00;101810.44;4992219;28;20053;-59
2022/05/21 03:01:11;;;;;;;21.52;11.95;;;;;;;12.13;100.00;101810.44;4991107;28;20432;-59
2022/05/21 03:03:39;;;;;;;21.65;11.77;;;;;;;12.12;100.00;101803.47;4992454;28;20501;-59
2022/05/21 03:06:07;;;;;;;20.50;11.75;;;;;;;12.16;100.00;101804.13;4991369;28;20049;-59
2022/05/21 03:11:20;;;;;;;17.55;11.30;;;;;;;12.20;100.00;101810.94;4992236;28;20125;-59
2022/05/21 03:13:50;;;;;;;21.00;11.13;;;;;;;12.23;100.00;101816.03;4992177;28;20081;-59
2022/05/21 03:16:18;;;;;;;24.73;12.35;;;;;;;12.17;100.00;101809.34;4992601;28;20474;-58
2022/05/21 03:18:46;;;;;;;20.92;11.77;;;;;;;12.26;100.00;101810.59;4992136;28;20051;-59
2022/05/21 03:21:14;;;;;;;16.25;12.07;;;;;;;12.27;100.00;101808.78;4992254;28;20109;-58
2022/05/21 03:23:47;;;;;;;23.42;12.10;;;;;;;12.28;100.00;101811.34;4990988;28;20066;-60
2022/05/21 03:26:15;;;;;;;24.52;11.68;;;;;;;12.37;100.00;101803.88;4992141;28;20130;-59
2022/05/21 03:28:43;;;;;;;20.00;11.90;;;;;;;12.29;100.00;101807.78;4991615;28;20050;-58
2022/05/21 03:31:12;;;;;;;22.90;12.82;;;;;;;12.23;100.00;101804.63;4987596;28;20068;-59
2022/05/21 03:33:40;;;;;;;20.58;11.68;;;;;;;12.24;100.00;101809.81;4990695;28;20050;-59
2022/05/21 03:36:09;;;;;;;19.38;11.80;;;;;;;12.23;100.00;101805.50;4992265;28;20038;-59
2022/05/21 03:38:37;;;;;;;22.13;12.20;;;;;;;12.25;100.00;101808.88;4990672;28;20105;-59
2022/05/21 03:41:05;;;;;;;22.00;11.73;;;;;;;12.25;100.00;101808.03;4992451;28;20043;-59
2022/05/21 03:43:33;;;;;;;21.95;11.43;;;;;;;12.25;100.00;101803.59;4990554;28;20074;-59
2022/05/21 03:46:01;;;;;;;22.05;11.60;;;;;;;12.22;100.00;101810.88;4988874;28;20122;-59
2022/05/21 03:48:31;;;;;;;20.13;11.40;;;;;;;12.24;100.00;101812.44;4994472;28;20141;-59
2022/05/21 03:50:59;;;;;;;18.48;11.05;;;;;;;12.26;100.00;101810.59;4995753;28;20057;-59
2022/05/21 03:53:28;;;;;;;24.90;12.20;;;;;;;12.24;100.00;101799.25;4995692;28;20072;-59
2022/05/21 03:55:56;;;;;;;17.55;10.85;;;;;;;12.26;100.00;101809.75;4991269;28;20054;-59
2022/05/21 03:58:25;;;;;;;19.02;11.10;;;;;;;12.25;100.00;101805.41;4993211;28;20051;-59
2022/05/21 04:00:53;;;;;;;22.58;11.43;;;;;;;12.25;100.00;101816.78;4995813;28;20089;-59
2022/05/21 04:03:21;;;;;;;18.58;10.90;;;;;;;12.30;100.00;101816.56;4995620;28;20101;-57
2022/05/21 04:05:51;;;;;;;20.63;10.90;;;;;;;12.30;100.00;101819.19;4995438;28;20077;-58
2022/05/21 04:08:19;;;;;;;21.73;11.75;;;;;;;12.29;100.00;101820.97;4991775;28;20049;-60
2022/05/21 04:10:48;;;;;;;18.33;11.68;;;;;;;12.32;100.00;101825.22;4991889;28;20408;-59
2022/05/21 04:13:16;;;;;;;17.30;11.07;;;;;;;12.37;100.00;101823.16;4995320;28;20050;-58
2022/05/21 04:15:44;;;;;;;21.80;12.32;;;;;;;12.37;100.00;101817.91;4995282;28;20367;-59
2022/05/21 04:18:13;;;;;;;20.08;11.88;;;;;;;12.40;100.00;101827.41;4995361;28;20055;-58
2022/05/21 04:20:41;;;;;;;19.25;10.90;;;;;;;12.43;100.00;101824.59;4994546;28;20065;-58
2022/05/21 04:23:11;;;;;;;20.85;11.80;;;;;;;12.42;100.00;101826.41;4991130;28;20062;-59
2022/05/21 04:25:39;;;;;;;24.40;11.63;;;;;;;12.45;100.00;101831.50;4993694;28;20054;-59
2022/05/21 04:28:07;;;;;;;20.73;11.07;;;;;;;12.52;100.00;101835.47;4995596;28;20096;-60
2022/05/21 04:30:36;;;;;;;20.70;11.90;;;;;;;12.52;100.00;101827.56;4995454;28;20129;-59
2022/05/21 04:33:04;;;;;;;25.45;12.32;;;;;;;12.54;100.00;101830.09;4994848;28;20113;-59
2022/05/21 04:38:17;;;;;;;20.90;11.35;;;;;;;12.58;100.00;101841.34;4992813;28;20055;-59
2022/05/21 04:40:46;;;;;;;22.50;11.40;;;;;;;12.46;100.00;101843.75;4993690;28;20050;-60
2022/05/21 04:43:14;;;;;;;19.35;11.27;;;;;;;12.55;100.00;101850.28;4993405;28;20062;-60
2022/05/21 04:45:42;;;;;;;19.63;11.02;;;;;;;12.56;100.00;101843.22;4991291;28;20050;-59
2022/05/21 04:48:11;;;;;;;21.35;11.48;;;;;;;12.61;100.00;101851.72;4992655;28;20042;-59
2022/05/21 04:50:39;;;;;;;18.80;10.90;;;;;;;12.70;100.00;101850.34;4994914;28;20556;-58
2022/05/21 04:53:07;;;;;;;20.95;11.40;;;;;;;12.64;100.00;101851.56;4995174;28;20527;-59
2022/05/21 04:55:37;;;;;;;19.00;10.70;;;;;;;12.72;100.00;101859.88;4994804;28;20430;-60
2022/05/21 04:58:06;;;;;;;21.40;10.82;;;;;;;12.75;100.00;101859.69;4992642;28;20065;-60
2022/05/21 05:00:34;;;;;;;22.13;10.65;;;;;;;12.73;100.00;101866.00;4994419;28;20056;-59
2022/05/21 05:03:03;;;;;;;20.55;10.82;;;;;;;12.76;100.00;101873.72;4993063;28;20409;-59
2022/05/21 05:05:31;;;;;;;17.98;10.07;;;;;;;12.75;100.00;101864.97;4990071;28;20429;-59
2022/05/21 05:07:59;;;;;;;22.23;10.43;;;;;;;12.76;100.00;101876.38;4993136;28;20038;-58
2022/05/21 05:10:27;;;;;;;26.30;10.85;;;;;;;12.80;100.00;101884.03;4994143;28;20050;-59
2022/05/21 05:12:56;;;;;;;18.60;9.75;;;;;;;12.82;100.00;101882.13;4994172;28;20112;-60
2022/05/21 05:15:24;;;;;;;24.42;9.75;;;;;;;12.87;100.00;101881.88;4994004;28;20050;-59
2022/05/21 05:17:58;;;;;;;23.60;8.75;;;;;;;12.87;100.00;101887.16;4994238;28;20077;-60
2022/05/21 05:20:27;;;;;;;19.33;8.73;;;;;;;12.92;100.00;101881.59;4994140;28;20042;-59
2022/05/21 05:22:56;;;;;;;16.88;8.88;;;;;;;12.91;100.00;101885.19;4993481;28;20173;-59
2022/05/21 05:25:24;;;;;;;18.30;10.07;;;;;;;12.93;100.00;101888.59;4990643;28;20056;-60
2022/05/21 05:27:53;;;;;;;18.15;9.10;;;;;;;12.98;100.00;101883.91;4989951;28;20132;-60
2022/05/21 05:30:24;;;;;;;21.45;8.55;;;;;;;13.00;100.00;101892.56;4993667;28;20058;-60
2022/05/21 05:32:52;;;;;;;16.33;9.05;;;;;;;13.02;100.00;101886.25;4993786;28;20074;-60
2022/05/21 05:35:20;;;;;;;24.30;9.80;;;;;;;13.02;100.00;101888.91;4994146;28;20047;-59
2022/05/21 05:37:49;;;;;;;21.77;9.13;;;;;;;13.08;100.00;101892.13;4990007;28;20548;-59
2022/05/21 05:40:20;;;;;;;23.55;9.52;;;;;;;13.02;100.00;101888.91;4991380;28;20445;-58
2022/05/21 05:42:48;;;;;;;19.05;8.02;;;;;;;13.07;100.00;101899.19;4993553;28;20391;-60
2022/05/21 05:45:17;;;;;;;18.48;7.80;;;;;;;13.08;100.00;101894.75;4993596;28;20042;-59
2022/05/21 05:47:47;;;;;;;20.50;7.65;;;;;;;13.16;100.00;101896.00;4993306;28;20046;-60
2022/05/21 05:50:15;;;;;;;21.40;7.70;;;;;;;13.25;100.00;101904.31;4993539;28;20071;-60
2022/05/21 05:52:43;;;;;;;18.88;6.93;;;;;;;13.25;100.00;101902.53;4993518;28;20125;-60
2022/05/21 05:55:11;;;;;;;18.80;7.10;;;;;;;13.34;100.00;101894.03;4993660;28;20468;-59
2022/05/21 05:57:39;;;;;;;19.45;7.10;;;;;;;13.36;100.00;101907.19;4993552;28;20085;-59
2022/05/21 06:00:08;;;;;;;17.55;6.55;;;;;;;13.42;100.00;101903.34;4992494;28;20558;-59
2022/05/21 06:05:23;;;;;;;16.85;5.80;;;;;;;13.62;100.00;101904.75;4991860;28;20043;-60
2022/05/21 06:07:54;;;;;;;21.65;6.10;;;;;;;13.64;100.00;101905.53;4989835;28;20054;-59
2022/05/21 06:10:26;;;;;;;20.23;5.35;;;;;;;13.79;100.00;101901.94;4991911;28;20053;-59
2022/05/21 06:12:54;;;;;;;16.70;5.47;;;;;;;13.93;100.00;101911.66;4992965;28;20054;-60
2022/05/21 06:15:22;;;;;;;20.60;5.68;;;;;;;13.90;100.00;101911.84;4993133;28;20049;-60
2022/05/21 06:17:52;;;;;;;16.63;5.07;;;;;;;13.99;100.00;101919.22;4993139;28;20039;-60
2022/05/21 06:20:24;;;;;;;16.42;4.88;;;;;;;14.02;100.00;101921.66;4993200;28;20452;-59
2022/05/21 06:22:53;;;;;;;15.27;5.20;;;;;;;14.04;100.00;101916.25;4992924;28;20046;-60
2022/05/21 06:25:23;;;;;;;16.25;5.15;;;;;;;14.08;100.00;101930.16;4988073;28;20050;-60
2022/05/21 06:27:52;;;;;;;17.30;4.72;;;;;;;14.11;100.00;101920.25;4988439;28;20057;-61
2022/05/21 06:30:23;;;;;;;13.45;4.38;;;;;;;14.18;100.00;101924.19;4992402;28;20058;-61
2022/05/21 06:32:51;;;;;;;19.92;4.80;;;;;;;14.20;100.00;101918.78;4990726;28;20052;-60
2022/05/21 06:35:21;;;;;;;14.75;3.97;;;;;;;14.15;100.00;101923.53;4988142;28;20100;-60
2022/05/21 06:37:50;;;;;;;14.80;3.85;;;;;;;14.20;100.00;101924.09;4990751;28;20066;-60
2022/05/21 06:40:19;;;;;;;16.33;4.32;;;;;;;14.24;100.00;101930.03;4991391;28;20101;-59
2022/05/21 06:42:47;;;;;;;17.42;4.05;;;;;;;14.28;100.00;101929.75;4987446;28;20073;-60
2022/05/21 06:45:16;;;;;;;15.88;4.68;;;;;;;14.38;100.00;101927.34;4989338;28;20613;-60
2022/05/21 06:47:44;;;;;;;16.60;4.15;;;;;;;14.44;100.00;101932.25;4992148;28;20054;-59
2022/05/21 06:50:13;;;;;;;17.80;4.05;;;;;;;14.45;100.00;101927.81;4989274;28;20050;-59
2022/05/21 06:52:41;;;;;;;15.80;4.18;;;;;;;14.42;100.00;101943.88;4988578;28;20611;-60
2022/05/21 06:55:14;;;;;;;14.98;3.83;;;;;;;14.55;100.00;101944.81;4992574;28;20057;-60
2022/05/21 06:57:42;;;;;;;15.23;3.75;;;;;;;14.53;100.00;101936.97;4992414;28;20038;-61
2022/05/21 07:00:11;;;;;;;14.85;3.60;;;;;;;14.69;100.00;101928.06;4992500;28;20105;-60
2022/05/21 07:02:40;;;;;;;16.75;3.67;;;;;;;14.72;100.00;101940.25;4992251;28;20053;-61
2022/05/21 07:07:55;;;;;;;12.93;3.10;;;;;;;14.86;100.00;101945.47;4990063;28;20054;-62
2022/05/21 07:10:26;;;;;;;15.23;3.80;;;;;;;14.95;100.00;101944.03;4992262;28;20046;-60
2022/05/21 07:12:54;;;;;;;18.52;4.45;;;;;;;14.95;100.00;101949.31;4992622;28;20064;-61
2022/05/21 07:15:23;;;;;;;13.25;3.13;;;;;;;15.02;100.00;101948.81;4992304;28;20383;-61
2022/05/21 07:17:51;;;;;;;14.07;3.38;;;;;;;15.17;100.00;101949.59;4989124;28;20549;-59
2022/05/21 07:20:21;;;;;;;15.20;3.80;;;;;;;15.24;98.78;101957.97;4990597;28;20054;-59
2022/05/21 07:22:50;;;;;;;17.58;3.38;;;;;;;15.30;97.67;101962.03;4998821;28;20109;-61
2022/05/21 07:25:21;;;;;;;15.43;3.33;;;;;;;15.29;95.27;101961.16;4997641;28;20104;-59
2022/05/21 07:27:57;;;;;;;11.27;2.50;;;;;;;15.41;94.70;101964.78;4998881;28;20573;-59
2022/05/21 07:30:25;;;;;;;13.55;3.03;;;;;;;15.53;95.04;101963.94;4998661;28;20058;-62
2022/05/21 07:32:55;;;;;;;13.60;2.85;;;;;;;15.58;95.44;101960.13;4998789;28;20587;-61
2022/05/21 07:35:25;;;;;;;11.52;3.10;;;;;;;15.57;93.57;101967.25;4996738;28;20042;-59
2022/05/21 07:37:53;;;;;;;13.73;3.47;;;;;;;15.59;92.84;101970.63;4995079;28;20050;-59
2022/05/21 07:40:24;;;;;;;11.18;2.58;;;;;;;15.80;92.79;101983.38;4998032;28;20051;-61
2022/05/21 07:42:53;;;;;;;14.55;2.60;;;;;;;15.91;94.02;101993.25;4998671;28;20096;-61
2022/05/21 07:45:23;;;;;;;10.45;2.55;;;;;;;16.03;92.66;101993.25;4998304;28;20054;-60
2022/05/21 07:47:51;;;;;;;11.45;2.60;;;;;;;16.17;91.73;101988.75;4998326;28;20374;-60
2022/05/21 07:50:22;;;;;;;10.02;3.03;;;;;;;16.36;89.63;101983.84;4996815;28;20042;-62
2022/05/21 07:52:51;;;;;;;14.63;3.10;;;;;;;16.60;89.80;101988.34;4995146;28;20052;-60
2022/05/21 07:55:19;;;;;;;15.90;3.15;;;;;;;16.78;87.21;101988.78;4994685;28;20256;-60
2022/05/21 07:57:47;;;;;;;11.73;2.42;;;;;;;16.94;86.96;101991.19;4998233;28;20042;-60
2022/05/21 08:00:18;;;;;;;12.88;2.78;;;;;;;16.95;85.44;101989.41;4998349;28;20397;-60
2022/05/21 08:02:49;;;;;;;10.85;3.17;;;;;;;17.11;84.36;101989.09;4998156;28;20073;-60
2022/05/21 08:05:17;;;;;;;12.93;2.90;;;;;;;17.19;84.36;101992.03;4998217;28;20053;-60
2022/05/21 08:07:51;;;;;;;11.48;2.70;;;;;;;17.26;82.51;101992.41;4998312;28;20061;-60
2022/05/21 08:10:21;;;;;;;12.05;2.58;;;;;;;17.55;83.41;101987.53;4998167;28;20116;-60
2022/05/21 08:12:49;;;;;;;12.55;2.90;;;;;;;17.69;83.44;101989.97;4997999;28;20544;-60
2022/05/21 08:15:18;;;;;;;12.55;2.78;;;;;;;17.65;82.25;101996.50;4998144;28;20557;-59
2022/05/21 08:17:48;;;;;;;10.68;2.55;;;;;;;18.00;80.96;101997.44;4997979;28;20164;-60
2022/05/21 08:20:17;;;;;;;13.90;2.92;;;;;;;18.10;80.22;101997.53;4997998;28;20054;-59
2022/05/21 08:28:17;;;;;;;13.00;2.95;;;;;;;18.24;77.78;101999.94;4994341;28;20046;-61
2022/05/21 08:30:48;;;;;;;11.75;2.33;;;;;;;18.37;78.67;102007.81;4997552;28;20135;-61
2022/05/21 08:33:20;;;;;;;9.80;2.60;;;;;;;18.26;74.88;102008.66;4992985;28;20100;-61
2022/05/21 08:35:48;;;;;;;10.40;3.00;;;;;;;18.45;74.89;102012.50;4993116;28;20050;-61
2022/05/21 08:38:16;;;;;;;10.32;2.10;;;;;;;18.63;74.23;102018.19;4991457;28;20046;-60
2022/05/21 08:40:47;;;;;;;16.55;2.63;;;;;;;18.71;75.98;102021.91;4993555;28;20054;-60
2022/05/21 08:43:21;;;;;;;11.82;2.30;;;;;;;19.02;70.29;102019.44;4994547;28;20045;-60
2022/05/21 08:46:04;;;;;;;10.55;2.20;;;;;;;19.02;73.09;102013.22;4994136;28;20138;-61
2022/05/21 08:48:35;;;;;;;10.25;2.03;;;;;;;18.83;70.77;102017.41;4994107;28;20058;-61
2022/05/21 08:51:10;;;;;;;9.23;2.30;;;;;;;18.87;70.78;102015.31;4994430;28;20046;-61
2022/05/21 08:53:50;;;;;;;11.23;2.40;;;;;;;19.13;72.00;102021.22;4991127;28;20050;-60
2022/05/21 08:56:20;;;;;;;9.43;2.17;;;;;;;19.08;67.25;102023.41;4991114;28;20042;-60
2022/05/21 08:58:51;;;;;;;7.90;1.80;;;;;;;19.29;70.56;102006.59;4994246;28;20042;-62
2022/05/21 09:01:21;;;;;;;8.52;2.08;;;;;;;19.46;69.56;102006.00;4992054;28;20050;-60
2022/05/21 09:03:53;;;;;;;11.35;2.50;;;;;;;19.72;68.36;102013.59;4991196;28;20054;-61
2022/05/21 09:06:35;;;;;;;8.60;2.05;;;;;;;19.64;66.37;102011.59;4993625;28;20490;-61
2022/05/21 09:09:17;;;;;;;9.73;2.40;;;;;;;19.52;68.79;102012.63;4994079;28;20050;-61
2022/05/21 09:11:49;;;;;;;11.95;2.60;;;;;;;19.24;67.75;102009.66;4990964;28;20042;-61
2022/05/21 09:14:25;;;;;;;10.88;2.00;;;;;;;19.31;68.01;102000.16;4989749;28;20058;-61
2022/05/21 09:16:54;;;;;;;9.85;2.22;;;;;;;19.55;65.94;102013.22;4992556;28;20054;-60
2022/05/21 09:19:28;;;;;;;7.00;1.83;;;;;;;19.49;66.85;102012.91;4994102;28;20054;-59
2022/05/21 09:22:01;;;;;;;8.63;1.85;;;;;;;19.40;67.21;102010.03;4994023;28;20046;-61
2022/05/21 09:24:38;;;;;;;15.48;2.08;;;;;;;19.40;67.75;102012.72;4993726;28;20046;-59
2022/05/21 09:27:22;;;;;;;9.85;2.50;;;;;;;19.85;68.35;102002.75;4993924;28;20042;-60
2022/05/21 09:29:52;;;;;;;11.00;2.50;;;;;;;20.13;68.39;102003.84;4993716;28;20375;-59
2022/05/21 09:32:22;;;;;;;10.77;2.42;;;;;;;20.40;66.88;102005.09;4991807;28;20536;-60
2022/05/21 09:35:05;;;;;;;9.98;2.10;;;;;;;20.46;67.34;102007.19;4990414;28;20062;-61
2022/05/21 09:37:33;;;;;;;11.75;2.65;;;;;;;20.35;64.44;102007.31;4993450;28;20096;-61
2022/05/21 09:40:02;;;;;;;10.40;1.83;;;;;;;20.26;63.75;102006.31;4993382;28;20051;-60
2022/05/21 09:45:32;;;;;;;9.45;2.25;;;;;;;20.00;63.46;102011.25;4993558;28;20137;-60
2022/05/21 09:48:22;;;;;;;9.40;2.17;;;;;;;19.67;65.09;102018.50;4993630;28;20500;-62
2022/05/21 09:50:56;;;;;;;13.35;2.60;;;;;;;19.83;65.99;102016.22;4993597;28;20042;-61
2022/05/21 09:53:32;;;;;;;13.40;2.97;;;;;;;19.84;66.25;102011.75;4993461;28;20043;-60
2022/05/21 09:56:04;;;;;;;7.93;2.15;;;;;;;19.68;66.08;102021.03;4993269;28;20496;-60
2022/05/21 09:58:34;;;;;;;8.57;2.50;;;;;;;19.66;65.40;102014.13;4993190;28;20050;-60
2022/05/21 10:01:03;;;;;;;13.32;2.70;;;;;;;19.48;66.27;102025.38;4992321;28;20382;-59
2022/05/21 10:03:50;;;;;;;10.02;2.88;;;;;;;19.39;68.45;102031.53;4989928;28;20477;-60
2022/05/21 10:06:25;;;;;;;9.63;3.15;;;;;;;19.07;66.68;102041.22;4990552;28;20470;-60
2022/05/21 10:11:55;;;;;;;8.32;2.67;;;;;;;19.62;69.16;102042.91;4988261;28;20153;-60
2022/05/21 10:14:26;;;;;;;11.55;2.83;;;;;;;19.75;66.86;102040.03;4991971;28;20516;-60
2022/05/21 10:16:58;;;;;;;10.90;2.85;;;;;;;19.73;66.15;102042.84;4993058;28;20043;-61
2022/05/21 10:19:37;;;;;;;10.52;3.17;;;;;;;19.68;64.73;102037.03;4992913;28;20061;-60
2022/05/21 10:22:17;;;;;;;13.25;2.90;;;;;;;19.77;64.68;102033.59;4991544;28;20490;-61
2022/05/21 10:24:59;;;;;;;11.50;3.42;;;;;;;19.86;64.74;102034.63;4989084;28;20101;-60
2022/05/21 10:27:59;;;;;;;8.98;2.70;;;;;;;20.13;63.95;102022.56;4992684;28;20478;-61
2022/05/21 10:30:36;;;;;;;9.98;2.50;;;;;;;20.43;64.28;102037.69;4979012;28;20062;-62
2022/05/21 10:33:29;;;;;;;10.18;2.92;;;;;;;20.65;61.78;102043.78;4992841;28;20050;-62
2022/05/21 10:36:12;;;;;;;9.45;2.53;;;;;;;20.67;62.04;102035.63;4992517;28;20449;-62
2022/05/21 10:38:45;;;;;;;;;;;;;;;20.92;61.35;102035.16;4993142;28;20389;-61
2022/05/21 10:41:30;;;;;;;8.73;2.20;;;;;;;20.78;58.83;102027.56;4992852;28;20360;-60
2022/05/21 10:44:10;;;;;;;8.90;2.55;;;;;;;21.02;62.47;102028.97;4992294;28;20057;-60
2022/05/21 10:46:51;;;;;;;12.02;2.83;;;;;;;21.24;58.84;102033.19;4991206;28;20061;-59
2022/05/21 10:49:46;;;;;;;8.77;2.00;;;;;;;20.97;57.96;102032.06;4989134;28;20521;-61
2022/05/21 10:52:23;;;;;;;9.80;2.45;;;;;;;21.11;58.35;102034.31;4991580;28;20081;-60
2022/05/21 10:55:06;;;;;;;9.55;2.22;;;;;;;21.52;57.68;102030.63;4991393;28;20058;-60
2022/05/21 10:57:47;;;;;;;10.50;2.70;;;;;;;21.28;58.13;102034.59;4987508;28;20046;-61
2022/05/21 11:00:19;;;;;;;8.90;2.65;;;;;;;21.29;57.76;102014.88;4991231;28;20049;-62
2022/05/21 11:03:12;;;;;;;11.15;2.80;;;;;;;21.16;60.02;102033.03;4992321;28;20050;-60
2022/05/21 11:05:49;;;;;;;;;;;;;;;21.43;58.17;102037.69;4992628;28;20493;-60
2022/05/21 11:08:24;;;;;;;8.95;2.33;;;;;;;21.39;57.10;102030.91;4990229;28;19922;-61
2022/05/21 11:11:00;;;;;;;10.73;2.70;;;;;;;21.32;56.87;102035.16;4987913;28;20062;-62
2022/05/21 11:13:33;;;;;;;9.80;2.53;;;;;;;21.23;56.49;102048.41;4992315;28;20362;-61
2022/05/21 11:16:07;;;;;;;9.45;2.25;;;;;;;21.12;57.00;102053.91;4990669;28;20434;-61
2022/05/21 11:18:43;;;;;;;8.52;2.33;;;;;;;21.03;58.26;102057.41;4989099;28;20560;-62
2022/05/21 11:21:16;;;;;;;9.88;2.65;;;;;;;20.98;59.22;102052.47;4991126;28;20101;-60
2022/05/21 11:23:55;;;;;;;9.27;2.50;;;;;;;21.01;58.21;102054.00;4988758;28;20046;-61
2022/05/21 11:26:34;;;;;;;11.18;2.70;;;;;;;21.06;58.16;102057.13;4988740;28;20054;-61
2022/05/21 11:29:08;;;;;;;10.45;2.80;;;;;;;21.22;59.01;102059.25;4992033;28;20105;-61
2022/05/21 11:37:29;;;;;;;10.73;2.50;;;;;;;21.11;59.94;102057.56;4988653;28;20098;-60
2022/05/21 11:39:59;;;;;;;10.60;2.67;;;;;;;21.13;60.22;102065.44;4990803;28;20046;-62
2022/05/21 11:42:33;;;;;;;11.23;2.63;;;;;;;21.50;57.12;102054.00;4987940;28;20104;-63
2022/05/21 11:45:15;;;;;;;7.55;2.50;;;;;;;21.84;58.10;102053.56;4988829;28;20109;-61
2022/05/21 11:47:56;;;;;;;10.75;2.83;;;;;;;22.01;55.27;102057.31;4991670;28;20101;-60
2022/05/21 11:50:27;;;;;;;11.38;2.83;;;;;;;21.94;56.38;102054.38;4988427;28;20062;-61
2022/05/21 11:53:34;;;;;;;11.00;2.55;;;;;;;22.38;56.75;102068.03;4988755;28;20909;-61
2022/05/21 11:56:08;;;;;;;12.60;2.83;;;;;;;22.60;54.83;102063.28;4991894;28;20051;-61
2022/05/21 11:59:13;;;;;;;10.20;2.78;;;;;;;22.61;54.24;102054.25;4991201;28;20039;-60
2022/05/21 12:01:53;;;;;;;8.95;2.15;;;;;;;22.75;51.29;102061.78;4991629;28;20042;-60
2022/05/21 12:04:41;;;;;;;8.77;2.17;;;;;;;22.90;53.25;102054.03;4991958;28;20437;-60
2022/05/21 12:07:14;;;;;;;16.80;3.08;;;;;;;22.72;50.28;102050.53;4989951;28;20062;-62
2022/05/21 12:10:02;;;;;;;10.00;2.45;;;;;;;22.58;50.83;102044.66;4992361;28;20064;-61